Time;durP1;ratioP1;P1;durP2;ratioP2;P2;SDS_P1;SDS_P2;PMS_P1;PMS_P2;Temp;Humidity;BMP_temperature;BMP_pressure;BME280_temperature;BME280_humidity;BME280_pressure;Samples;Min_cycle;Max_cycle;Signal;HPM_P1;HPM_P2
2023/03/03 00:02:09;;;;;;;;;50.75;39.50;;;;;6.48;88.95;101916.72;5009960;28;54114;-77
2023/03/03 00:04:35;;;;;;;;;45.00;35.00;;;;;6.44;88.74;101908.63;5015177;28;58000;-76
2023/03/03 00:07:00;;;;;;;;;55.50;40.75;;;;;6.40;88.53;101906.72;5010675;28;65357;-77
2023/03/03 00:09:25;;;;;;;;;57.75;41.75;;;;;6.34;88.53;101906.41;5033988;28;59654;-77
2023/03/03 00:11:55;;;;;;;;;44.75;35.75;;;;;6.32;88.49;101902.84;5015300;28;56117;-76
2023/03/03 00:14:39;;;;;;;;;54.75;39.25;;;;;6.29;88.43;101907.13;5014649;28;45643;-76
2023/03/03 00:17:22;;;;;;;;;46.00;39.50;;;;;6.26;89.05;101914.84;5018868;28;55591;-77
2023/03/03 00:19:48;;;;;;;;;41.50;33.50;;;;;6.25;89.30;101913.06;5016183;28;45517;-79
2023/03/03 00:22:50;;;;;;;;;48.25;32.00;;;;;6.22;89.36;101902.41;5015830;28;45372;-77
2023/03/03 00:25:18;;;;;;;;;55.50;38.75;;;;;6.20;89.31;101913.69;5024433;28;45940;-78
2023/03/03 00:27:44;;;;;;;;;54.50;37.25;;;;;6.18;89.78;101904.81;5036676;28;45449;-76
2023/03/03 00:30:26;;;;;;;;;44.75;33.50;;;;;6.17;89.94;101895.16;5003932;28;64555;-76
2023/03/03 00:32:53;;;;;;;;;52.00;39.25;;;;;6.15;90.12;101908.22;5018756;28;45550;-77
2023/03/03 00:35:34;;;;;;;;;51.25;39.00;;;;;6.17;90.45;101911.78;5017916;28;46178;-78
2023/03/03 00:38:01;;;;;;;;;47.00;33.50;;;;;6.18;90.89;101920.56;5015210;28;45506;-76
2023/03/03 00:40:32;;;;;;;;;50.00;32.75;;;;;6.17;90.74;101910.91;5018109;28;45288;-77
2023/03/03 00:42:59;;;;;;;;;41.00;35.50;;;;;6.17;90.50;101914.41;5018737;28;45503;-77
2023/03/03 00:45:33;;;;;;;;;45.50;36.75;;;;;6.14;90.08;101913.41;5018458;28;46699;-78
2023/03/03 00:48:07;;;;;;;;;41.75;37.00;;;;;6.09;90.10;101917.53;5015428;28;45277;-76
2023/03/03 00:50:34;;;;;;;;;46.75;30.50;;;;;6.07;90.41;101912.19;5014928;28;47098;-77
2023/03/03 00:53:19;;;;;;;;;52.25;36.25;;;;;6.07;91.07;101916.53;5018679;28;45615;-76
2023/03/03 00:55:46;;;;;;;;;56.00;40.00;;;;;6.08;91.15;101914.00;5002296;28;47337;-77
2023/03/03 00:58:12;;;;;;;;;51.75;34.25;;;;;6.06;91.39;101910.41;5001672;28;45480;-78
2023/03/03 01:00:39;;;;;;;;;54.00;40.50;;;;;6.01;91.38;101906.66;5018304;28;45947;-78
2023/03/03 01:03:06;;;;;;;;;48.75;36.50;;;;;5.99;91.08;101909.22;5022317;28;45326;-76
2023/03/03 01:05:32;;;;;;;;;50.25;40.25;;;;;5.96;90.84;101914.31;5021648;28;45791;-78
2023/03/03 01:07:58;;;;;;;;;42.50;37.50;;;;;5.91;90.55;101909.66;5015920;28;45373;-76
2023/03/03 01:10:25;;;;;;;;;47.75;36.75;;;;;5.91;90.93;101917.50;5016198;28;45642;-77
2023/03/03 01:12:51;;;;;;;;;48.75;39.00;;;;;5.91;90.91;101917.50;5022189;28;45577;-77
2023/03/03 01:15:16;;;;;;;;;55.50;38.75;;;;;5.89;92.13;101916.56;5021072;28;63500;-77
2023/03/03 01:17:42;;;;;;;;;51.75;38.00;;;;;5.90;91.97;101924.47;5024164;28;45510;-77
2023/03/03 01:20:09;;;;;;;;;45.75;34.25;;;;;5.89;92.37;101925.31;5025697;28;45355;-77
2023/03/03 01:22:35;;;;;;;;;48.75;35.75;;;;;5.86;92.70;101921.63;5005459;28;45481;-77
2023/03/03 01:25:02;;;;;;;;;45.75;33.50;;;;;5.88;92.85;101927.88;5019976;28;46807;-78
2023/03/03 01:27:28;;;;;;;;;36.50;30.75;;;;;5.86;93.15;101926.88;5005593;28;45891;-77
2023/03/03 01:29:55;;;;;;;;;42.50;34.50;;;;;5.87;93.48;101923.47;5012936;28;45316;-76
2023/03/03 01:32:20;;;;;;;;;45.25;38.75;;;;;5.86;93.02;101927.81;5022056;28;45331;-75
2023/03/03 01:34:46;;;;;;;;;47.25;36.25;;;;;5.84;93.83;101929.44;5037834;28;48305;-77
2023/03/03 01:37:11;;;;;;;;;47.25;35.50;;;;;5.84;93.90;101926.81;5038559;28;63507;-76
2023/03/03 01:39:36;;;;;;;;;41.00;34.50;;;;;5.83;94.07;101927.66;5021216;28;57036;-77
2023/03/03 01:42:02;;;;;;;;;50.50;40.50;;;;;5.83;94.41;101919.78;5038726;28;54520;-77
2023/03/03 01:44:28;;;;;;;;;53.50;39.00;;;;;5.82;94.68;101911.84;5021260;28;46576;-77
2023/03/03 01:47:11;;;;;;;;;52.50;38.50;;;;;5.83;94.80;101917.16;5021229;28;50165;-77
2023/03/03 01:49:51;;;;;;;;;48.75;39.25;;;;;5.82;94.66;101912.75;5039337;28;45247;-79
2023/03/03 01:52:41;;;;;;;;;37.75;32.25;;;;;5.79;94.21;101913.50;5021402;28;45385;-77
2023/03/03 01:55:25;;;;;;;;;46.25;36.00;;;;;5.74;94.85;101901.88;5014379;28;47792;-77
2023/03/03 01:57:57;;;;;;;;;42.50;29.75;;;;;5.74;94.56;101901.88;5000360;28;45931;-77
2023/03/03 02:00:23;;;;;;;;;57.75;41.00;;;;;5.77;94.81;101923.00;4994768;28;45479;-77
2023/03/03 02:02:48;;;;;;;;;56.00;40.75;;;;;5.73;94.98;101907.97;5021253;28;45593;-76
2023/03/03 02:05:15;;;;;;;;;52.25;42.25;;;;;5.74;95.64;101917.59;5020503;28;67814;-77
2023/03/03 02:07:40;;;;;;;;;53.75;40.00;;;;;5.75;95.90;101916.81;5017927;28;45462;-77
2023/03/03 02:10:10;;;;;;;;;51.50;40.00;;;;;5.76;96.43;101915.09;5015233;28;45491;-77
2023/03/03 02:12:38;;;;;;;;;55.25;43.25;;;;;5.75;96.50;101906.34;5019022;28;45594;-77
2023/03/03 02:15:24;;;;;;;;;44.00;35.25;;;;;5.73;96.26;101914.94;5038087;28;46090;-76
2023/03/03 02:17:53;;;;;;;;;48.50;37.25;;;;;5.70;96.21;101909.53;5042044;28;45303;-76
2023/03/03 02:20:37;;;;;;;;;45.25;35.50;;;;;5.67;96.49;101909.41;5015286;28;45468;-79
2023/03/03 02:23:05;;;;;;;;;40.25;35.25;;;;;5.65;95.97;101918.91;5015085;28;45569;-77
2023/03/03 02:25:42;;;;;;;;;56.00;37.50;;;;;5.60;96.26;101915.19;5037021;28;46440;-77
2023/03/03 02:28:07;;;;;;;;;40.50;36.00;;;;;5.59;97.00;101905.50;5042129;28;45681;-77
2023/03/03 02:30:37;;;;;;;;;45.25;36.75;;;;;5.60;97.45;101908.22;5026950;28;45411;-77
2023/03/03 02:33:02;;;;;;;;;47.50;30.25;;;;;5.60;97.73;101902.97;5038453;28;45617;-78
2023/03/03 02:35:32;;;;;;;;;41.00;29.50;;;;;5.59;97.67;101897.63;5038391;28;46302;-77
2023/03/03 02:38:10;;;;;;;;;46.00;34.50;;;;;5.58;97.10;101901.09;5011963;28;45438;-79
2023/03/03 02:40:41;;;;;;;;;49.50;32.25;;;;;5.55;97.10;101903.56;5021333;28;45310;-77
2023/03/03 02:43:09;;;;;;;;;44.50;33.50;;;;;5.52;96.61;101902.59;5014253;28;45496;-77
2023/03/03 02:45:43;;;;;;;;;39.25;29.50;;;;;5.47;97.18;101900.56;5001163;28;48338;-77
2023/03/03 02:48:09;;;;;;;;;53.25;39.25;;;;;5.48;97.57;101905.88;5019242;28;45209;-77
2023/03/03 02:50:34;;;;;;;;;53.00;35.25;;;;;5.44;97.71;101896.09;5020795;28;45328;-77
2023/03/03 02:53:00;;;;;;;;;43.75;30.50;;;;;5.43;97.84;101904.78;5017113;28;45403;-77
2023/03/03 02:55:25;;;;;;;;;48.50;38.50;;;;;5.45;97.98;101908.34;5019574;28;67299;-77
2023/03/03 02:57:50;;;;;;;;;52.00;36.50;;;;;5.41;97.92;101911.66;5016784;28;45475;-77
2023/03/03 03:00:16;;;;;;;;;41.75;34.50;;;;;5.43;97.51;101914.31;5035095;28;60635;-77
2023/03/03 03:02:41;;;;;;;;;44.75;36.00;;;;;5.36;97.37;101907.91;5038214;28;45457;-78
2023/03/03 03:05:07;;;;;;;;;48.75;37.25;;;;;5.34;97.42;101911.28;5011614;28;62451;-77
2023/03/03 03:07:33;;;;;;;;;43.00;32.25;;;;;5.33;97.92;101904.25;5038000;28;45324;-77
2023/03/03 03:09:58;;;;;;;;;47.25;38.25;;;;;5.35;98.32;101908.72;5035843;28;45520;-77
2023/03/03 03:12:24;;;;;;;;;46.50;37.00;;;;;5.37;98.29;101907.06;5036422;28;45364;-78
2023/03/03 03:14:49;;;;;;;;;45.75;36.75;;;;;5.37;98.84;101911.41;5019019;28;62621;-78
2023/03/03 03:17:14;;;;;;;;;48.00;37.75;;;;;5.33;98.19;101912.09;5025207;28;61466;-77
2023/03/03 03:19:40;;;;;;;;;37.75;36.25;;;;;5.31;98.04;101898.03;5037969;28;45415;-79
2023/03/03 03:22:05;;;;;;;;;35.75;30.00;;;;;5.31;98.14;101908.50;5045661;28;58339;-77
2023/03/03 03:24:31;;;;;;;;;48.75;39.00;;;;;5.27;98.10;101902.19;5037578;28;45791;-77
2023/03/03 03:26:56;;;;;;;;;46.00;33.25;;;;;5.28;98.56;101904.03;5035235;28;57244;-79
2023/03/03 03:29:21;;;;;;;;;48.25;30.00;;;;;5.28;98.82;101901.41;5015742;28;57100;-77
2023/03/03 03:31:47;;;;;;;;;47.50;36.00;;;;;5.28;98.49;101896.16;5014119;28;45544;-78
2023/03/03 03:34:12;;;;;;;;;44.50;37.75;;;;;5.28;98.84;101895.28;5031300;28;63271;-76
2023/03/03 03:36:38;;;;;;;;;34.00;28.25;;;;;5.28;98.69;101903.13;5037085;28;58509;-77
2023/03/03 03:39:05;;;;;;;;;36.25;31.75;;;;;5.21;98.54;101897.56;5037438;28;45296;-79
2023/03/03 03:41:30;;;;;;;;;48.75;37.00;;;;;5.23;99.23;101909.03;5037833;28;45472;-77
2023/03/03 03:43:55;;;;;;;;;44.50;34.50;;;;;5.22;99.60;101911.56;4999422;28;58502;-80
2023/03/03 03:46:21;;;;;;;;;45.50;29.25;;;;;5.21;99.94;101917.59;5004075;28;61605;-77
2023/03/03 03:48:46;;;;;;;;;45.75;37.75;;;;;5.23;100.00;101916.88;5019988;28;45236;-77
2023/03/03 03:51:12;;;;;;;;;61.00;42.00;;;;;5.22;99.99;101920.31;5017694;28;45181;-77
2023/03/03 03:53:37;;;;;;;;;54.25;41.75;;;;;5.21;99.73;101917.59;5016440;28;45828;-77
2023/03/03 03:56:02;;;;;;;;;48.75;40.50;;;;;5.18;99.01;101920.97;5016030;28;62508;-77
2023/03/03 03:58:28;;;;;;;;;37.50;30.75;;;;;5.15;98.50;101919.91;5016286;28;45511;-77
2023/03/03 04:00:53;;;;;;;;;51.50;40.00;;;;;5.11;99.31;101929.31;5037179;28;45424;-78
2023/03/03 04:03:19;;;;;;;;;55.00;39.00;;;;;5.09;99.32;101912.66;5015995;28;47386;-77
2023/03/03 04:05:44;;;;;;;;;46.00;37.00;;;;;5.07;99.63;101919.53;5015532;28;46050;-77
2023/03/03 04:08:09;;;;;;;;;47.25;34.00;;;;;5.07;99.92;101927.41;5016210;28;45303;-78
2023/03/03 04:10:35;;;;;;;;;51.00;37.00;;;;;5.03;99.99;101914.97;5015537;28;45309;-77
2023/03/03 04:13:00;;;;;;;;;38.75;35.75;;;;;5.04;99.85;101923.72;5016006;28;46696;-77
2023/03/03 04:15:26;;;;;;;;;41.00;32.50;;;;;4.97;99.46;101920.78;5011834;28;67417;-76
2023/03/03 04:17:51;;;;;;;;;51.75;37.00;;;;;4.96;99.56;101921.63;5008714;28;45560;-77
2023/03/03 04:20:16;;;;;;;;;54.50;38.25;;;;;4.93;99.46;101926.69;5036367;28;53032;-79
2023/03/03 04:22:42;;;;;;;;;38.50;32.50;;;;;4.93;100.00;101918.84;5027576;28;46321;-77
2023/03/03 04:25:09;;;;;;;;;48.00;31.25;;;;;4.90;100.00;101930.84;5019404;28;45467;-77
2023/03/03 04:27:35;;;;;;;;;39.50;32.50;;;;;4.92;100.00;101935.38;5018059;28;45393;-76
2023/03/03 04:30:02;;;;;;;;;48.25;39.50;;;;;4.93;100.00;101941.50;5024037;28;47054;-78
2023/03/03 04:32:27;;;;;;;;;46.25;38.75;;;;;4.93;100.00;101937.16;5015818;28;48242;-76
2023/03/03 04:34:53;;;;;;;;;16.25;15.25;;;;;4.91;100.00;101935.28;5017870;28;45417;-76
2023/03/03 04:37:18;;;;;;;;;41.75;32.75;;;;;4.89;100.00;101934.28;5036082;28;45776;-77
2023/03/03 04:39:44;;;;;;;;;50.50;36.00;;;;;4.89;100.00;101950.91;5018488;28;45343;-80
2023/03/03 04:42:09;;;;;;;;;43.50;37.00;;;;;4.87;100.00;101944.69;5036303;28;46773;-77
2023/03/03 04:44:34;;;;;;;;;51.75;36.00;;;;;4.88;100.00;101946.47;5018415;28;47865;-79
2023/03/03 04:47:00;;;;;;;;;54.75;41.50;;;;;4.86;100.00;101948.13;5018238;28;52509;-76
2023/03/03 04:49:25;;;;;;;;;62.50;40.50;;;;;4.85;100.00;101941.13;5018417;28;51121;-78
2023/03/03 04:51:50;;;;;;;;;44.25;40.00;;;;;4.86;100.00;101940.28;5015885;28;48658;-77
2023/03/03 04:54:16;;;;;;;;;40.50;38.25;;;;;4.84;100.00;101948.84;5017418;28;62767;-76
2023/03/03 04:56:41;;;;;;;;;50.00;37.50;;;;;4.83;100.00;101947.97;5015374;28;45489;-77
2023/03/03 04:59:07;;;;;;;;;44.75;37.75;;;;;4.80;100.00;101939.06;5014703;28;45338;-77
2023/03/03 05:01:32;;;;;;;;;49.25;34.50;;;;;4.79;100.00;101940.75;5017176;28;64363;-77
2023/03/03 05:03:57;;;;;;;;;45.50;38.50;;;;;4.78;100.00;101938.06;5017794;28;64778;-78
2023/03/03 05:06:23;;;;;;;;;51.75;39.00;;;;;4.78;100.00;101945.94;5036297;28;45232;-77
2023/03/03 05:08:48;;;;;;;;;50.50;36.50;;;;;4.76;100.00;101944.97;5009180;28;45276;-76
2023/03/03 05:11:14;;;;;;;;;52.00;39.75;;;;;4.75;100.00;101940.56;5017960;28;63394;-79
2023/03/03 05:13:39;;;;;;;;;45.50;34.00;;;;;4.74;100.00;101944.88;5018264;28;45437;-77
2023/03/03 05:16:05;;;;;;;;;52.25;36.75;;;;;4.69;100.00;101943.75;5018391;28;45493;-77
2023/03/03 05:18:30;;;;;;;;;51.50;36.25;;;;;4.70;100.00;101942.91;5004239;28;45593;-77
2023/03/03 05:20:57;;;;;;;;;48.75;37.50;;;;;4.69;100.00;101946.38;5039018;28;47780;-76
2023/03/03 05:23:22;;;;;;;;;46.50;38.00;;;;;4.65;100.00;101945.28;5007052;28;45360;-76
2023/03/03 05:25:48;;;;;;;;;48.75;39.00;;;;;4.67;100.00;101938.41;5005689;28;46720;-79
2023/03/03 05:28:14;;;;;;;;;37.75;27.50;;;;;4.66;100.00;101936.63;5018483;28;45388;-76
2023/03/03 05:30:39;;;;;;;;;58.25;41.50;;;;;4.64;100.00;101945.22;5017888;28;45400;-76
2023/03/03 05:33:05;;;;;;;;;58.25;40.75;;;;;4.60;100.00;101957.22;5034873;28;61875;-79
2023/03/03 05:35:31;;;;;;;;;53.00;40.25;;;;;4.57;100.00;101951.81;5017076;28;45482;-77
2023/03/03 05:37:59;;;;;;;;;49.50;41.25;;;;;4.54;100.00;101940.31;5018313;28;45559;-79
2023/03/03 05:40:25;;;;;;;;;58.25;40.50;;;;;4.53;100.00;101949.88;5018463;28;46509;-78
2023/03/03 05:42:51;;;;;;;;;45.50;38.75;;;;;4.52;100.00;101939.31;5021227;28;46334;-79
2023/03/03 05:45:19;;;;;;;;;44.25;35.00;;;;;4.53;100.00;101954.19;5020063;28;45434;-77
2023/03/03 05:47:48;;;;;;;;;49.00;38.50;;;;;4.51;100.00;101950.59;5006456;28;45570;-78
2023/03/03 05:50:13;;;;;;;;;46.25;37.25;;;;;4.47;100.00;101950.47;5007956;28;47390;-77
2023/03/03 05:52:39;;;;;;;;;45.00;37.25;;;;;4.51;100.00;101967.19;5021329;28;45248;-77
2023/03/03 05:55:05;;;;;;;;;45.75;35.25;;;;;4.49;100.00;101962.72;5021304;28;45350;-77
2023/03/03 05:57:30;;;;;;;;;49.25;33.50;;;;;4.49;100.00;101968.84;5021361;28;45410;-77
2023/03/03 05:59:55;;;;;;;;;41.00;30.25;;;;;4.47;100.00;101962.59;5038698;28;46857;-76
2023/03/03 06:02:21;;;;;;;;;50.75;41.25;;;;;4.48;100.00;101956.59;5037029;28;45294;-78
2023/03/03 06:04:46;;;;;;;;;41.25;36.00;;;;;4.46;100.00;101963.44;5004480;28;50291;-76
2023/03/03 06:07:11;;;;;;;;;56.00;40.25;;;;;4.45;100.00;101961.63;5015129;28;45502;-78
2023/03/03 06:09:37;;;;;;;;;55.50;40.25;;;;;4.44;100.00;101963.34;4998319;28;63566;-77
2023/03/03 06:12:02;;;;;;;;;52.25;42.00;;;;;4.43;100.00;101966.78;5020228;28;45345;-80
2023/03/03 06:14:28;;;;;;;;;68.50;44.25;;;;;4.42;100.00;101962.38;5142546;22;46227;-78
2023/03/03 06:16:53;;;;;;;;;54.50;41.75;;;;;4.40;100.00;101960.50;5010215;28;52796;-79
2023/03/03 06:19:18;;;;;;;;;51.25;40.25;;;;;4.43;100.00;101963.28;5020801;28;47414;-76
2023/03/03 06:21:44;;;;;;;;;59.00;41.50;;;;;4.41;100.00;101960.56;5046364;28;62616;-77
2023/03/03 06:24:09;;;;;;;;;44.50;35.50;;;;;4.44;100.00;101971.19;5038886;28;45295;-79
2023/03/03 06:26:34;;;;;;;;;68.00;44.25;;;;;4.46;100.00;101972.16;5017958;28;50471;-77
2023/03/03 06:29:00;;;;;;;;;52.25;43.25;;;;;4.44;100.00;101980.75;5023064;28;65437;-77
2023/03/03 06:31:26;;;;;;;;;60.00;47.25;;;;;4.45;100.00;101977.31;5023358;28;65040;-77
2023/03/03 06:33:52;;;;;;;;;59.75;38.00;;;;;4.46;100.00;101998.31;5020693;28;45368;-77
2023/03/03 06:36:18;;;;;;;;;39.25;34.25;;;;;4.45;100.00;101986.06;5021002;28;45469;-76
2023/03/03 06:38:43;;;;;;;;;56.75;38.50;;;;;4.49;100.00;101995.00;5036893;28;47922;-77
2023/03/03 06:41:09;;;;;;;;;57.00;39.25;;;;;4.55;100.00;101997.94;5018397;28;45448;-79
2023/03/03 06:43:35;;;;;;;;;47.50;39.00;;;;;4.60;100.00;102004.31;5038713;28;45457;-77
2023/03/03 06:46:01;;;;;;;;;47.75;36.50;;;;;4.65;100.00;102002.84;5017446;28;45567;-78
2023/03/03 06:48:26;;;;;;;;;57.25;39.75;;;;;4.70;100.00;102016.19;5008888;28;46884;-77
2023/03/03 06:50:51;;;;;;;;;47.00;40.25;;;;;4.73;100.00;102004.13;5020352;28;45429;-77
2023/03/03 06:53:17;;;;;;;;;55.00;42.00;;;;;4.80;100.00;102015.84;5020019;28;56300;-77
2023/03/03 06:55:43;;;;;;;;;56.50;41.00;;;;;4.85;100.00;102018.72;5020916;28;45705;-78
2023/03/03 06:58:17;;;;;;;;;47.50;36.75;;;;;4.84;100.00;102014.28;5038019;28;46595;-77
2023/03/03 07:00:45;;;;;;;;;59.50;44.00;;;;;4.87;100.00;102022.31;5019467;28;45478;-79
2023/03/03 07:03:14;;;;;;;;;61.75;44.75;;;;;4.90;100.00;102032.91;5038422;28;45537;-77
2023/03/03 07:05:39;;;;;;;;;61.25;45.00;;;;;4.92;100.00;102031.28;5001940;28;45429;-77
2023/03/03 07:08:16;;;;;;;;;57.75;42.00;;;;;5.00;100.00;102028.25;5019264;28;66471;-80
2023/03/03 07:10:42;;;;;;;;;59.50;43.00;;;;;5.02;100.00;102030.97;5036103;28;45239;-78
2023/03/03 07:13:28;;;;;;;;;58.00;44.00;;;;;5.09;100.00;102032.19;5020556;28;45266;-77
2023/03/03 07:15:56;;;;;;;;;50.00;41.25;;;;;5.15;100.00;102043.88;5003722;28;45478;-78
2023/03/03 07:18:49;;;;;;;;;57.25;43.50;;;;;5.16;100.00;102048.28;5023568;28;47645;-78
2023/03/03 07:21:20;;;;;;;;;55.75;40.25;;;;;5.19;100.00;102050.16;5025771;28;45528;-79
2023/03/03 07:23:48;;;;;;;;;55.50;40.25;;;;;5.20;100.00;102049.34;5019183;28;45189;-76
2023/03/03 07:26:17;;;;;;;;;58.25;43.50;;;;;5.23;100.00;102060.88;5007975;28;45467;-80
2023/03/03 07:28:51;;;;;;;;;54.50;40.50;;;;;5.23;100.00;102046.91;5035901;28;45889;-77
2023/03/03 07:31:26;;;;;;;;;63.00;43.50;;;;;5.23;100.00;102047.78;5024128;28;45489;-76
2023/03/03 07:33:51;;;;;;;;;62.75;47.50;;;;;5.23;100.00;102049.53;5034248;28;45389;-79
2023/03/03 07:36:25;;;;;;;;;64.00;47.25;;;;;5.26;100.00;102057.50;5016254;28;58445;-77
2023/03/03 07:38:54;;;;;;;;;57.00;45.00;;;;;5.24;100.00;102052.22;5019480;28;46961;-77
2023/03/03 07:41:22;;;;;;;;;48.50;42.00;;;;;5.23;100.00;102053.03;5019614;28;45491;-76
2023/03/03 07:43:53;;;;;;;;;56.25;43.50;;;;;5.28;100.00;102065.47;5020241;28;45342;-76
2023/03/03 07:46:26;;;;;;;;;53.50;43.75;;;;;5.30;100.00;102075.19;5020649;28;45502;-77
2023/03/03 07:48:52;;;;;;;;;67.50;45.50;;;;;5.33;100.00;102077.97;5037470;28;46003;-77
2023/03/03 07:51:24;;;;;;;;;58.00;43.00;;;;;5.36;100.00;102077.22;5021507;28;45355;-77
2023/03/03 07:53:51;;;;;;;;;62.00;47.50;;;;;5.42;100.00;102074.91;5011750;28;45453;-77
2023/03/03 07:56:30;;;;;;;;;65.25;44.25;;;;;5.50;100.00;102078.84;5019692;28;45912;-80
2023/03/03 07:58:57;;;;;;;;;59.75;46.25;;;;;5.56;100.00;102083.50;5016435;28;46684;-76
2023/03/03 08:01:39;;;;;;;;;61.25;44.25;;;;;5.60;100.00;102083.75;5019144;28;45342;-77
2023/03/03 08:04:12;;;;;;;;;61.00;46.25;;;;;5.66;100.00;102091.03;5037477;28;45260;-77
2023/03/03 08:06:44;;;;;;;;;50.75;43.00;;;;;5.71;100.00;102079.94;5037241;28;45245;-77
2023/03/03 08:09:09;;;;;;;;;62.25;44.75;;;;;5.79;100.00;102089.06;5017254;28;46819;-78
2023/03/03 08:11:51;;;;;;;;;64.00;48.00;;;;;5.84;100.00;102085.78;5036054;28;45543;-77
2023/03/03 08:14:39;;;;;;;;;60.00;46.50;;;;;5.93;100.00;102102.94;5019072;28;45192;-77
2023/03/03 08:17:19;;;;;;;;;58.50;43.25;;;;;5.98;100.00;102093.56;5040652;28;45421;-77
2023/03/03 08:19:45;;;;;;;;;62.00;44.25;;;;;6.06;100.00;102098.28;5019230;28;46299;-80
2023/03/03 08:22:30;;;;;;;;;59.50;45.50;;;;;6.15;100.00;102101.38;5027547;28;45463;-78
2023/03/03 08:24:55;;;;;;;;;60.50;47.00;;;;;6.15;100.00;102093.50;5019288;28;45648;-78
2023/03/03 08:27:21;;;;;;;;;56.25;43.00;;;;;6.19;100.00;102100.69;5036133;28;61136;-77
2023/03/03 08:29:46;;;;;;;;;57.75;44.00;;;;;6.26;100.00;102103.69;5027630;28;58599;-76
2023/03/03 08:32:11;;;;;;;;;62.00;44.75;;;;;6.33;100.00;102114.47;5036010;28;63339;-77
2023/03/03 08:34:37;;;;;;;;;64.00;44.75;;;;;6.36;100.00;102104.13;5035926;28;59985;-77
2023/03/03 08:37:02;;;;;;;;;62.00;45.00;;;;;6.34;100.00;102085.72;5019231;28;45263;-79
2023/03/03 08:39:27;;;;;;;;;54.25;44.50;;;;;6.40;100.00;102109.63;4998550;28;65362;-77
2023/03/03 08:41:53;;;;;;;;;66.25;51.25;;;;;6.39;100.00;102112.13;5036141;28;60712;-78
2023/03/03 08:44:19;;;;;;;;;66.75;46.25;;;;;6.39;100.00;102112.13;5037015;28;45332;-77
2023/03/03 08:46:44;;;;;;;;;68.00;47.25;;;;;6.42;100.00;102117.56;5029917;28;45690;-77
2023/03/03 08:49:10;;;;;;;;;60.25;46.50;;;;;6.43;100.00;102115.00;5012446;28;46271;-77
2023/03/03 08:51:35;;;;;;;;;66.00;49.50;;;;;6.41;100.00;102118.38;5018344;28;45414;-78
2023/03/03 08:54:00;;;;;;;;;59.50;49.00;;;;;6.35;100.00;102123.34;5036003;28;58510;-79
2023/03/03 08:56:26;;;;;;;;;61.00;44.50;;;;;6.29;100.00;102121.31;5034403;28;58551;-79
2023/03/03 08:58:51;;;;;;;;;48.50;39.50;;;;;6.24;100.00;102113.22;5037766;28;46690;-76
2023/03/03 09:01:16;;;;;;;;;54.25;43.25;;;;;6.21;100.00;102115.66;5037389;28;65083;-79
2023/03/03 09:03:42;;;;;;;;;63.25;43.25;;;;;6.23;100.00;102119.28;5033977;28;57494;-78
2023/03/03 09:06:08;;;;;;;;;66.25;46.25;;;;;6.21;100.00;102110.44;5018614;28;45264;-80
2023/03/03 09:08:34;;;;;;;;;64.25;43.25;;;;;6.23;100.00;102115.75;5017729;28;46628;-76
2023/03/03 09:11:00;;;;;;;;;55.75;43.25;;;;;6.22;100.00;102122.72;5016816;28;45470;-76
2023/03/03 09:13:28;;;;;;;;;57.75;43.00;;;;;6.25;100.00;102119.34;5036212;28;45415;-77
2023/03/03 09:15:55;;;;;;;;;65.00;46.00;;;;;6.26;100.00;102119.41;5018373;28;45637;-78
2023/03/03 09:18:31;;;;;;;;;64.25;43.00;;;;;6.32;100.00;102124.06;5022080;28;45553;-78
2023/03/03 09:20:56;;;;;;;;;56.00;38.75;;;;;6.37;100.00;102121.66;5021372;28;45557;-75
2023/03/03 09:23:37;;;;;;;;;52.50;43.00;;;;;6.46;100.00;102132.63;5025654;28;60875;-80
2023/03/03 09:26:21;;;;;;;;;61.25;42.00;;;;;6.52;100.00;102135.53;5039828;28;45569;-77
2023/03/03 09:28:46;;;;;;;;;56.75;41.50;;;;;6.56;100.00;102127.88;5022581;28;47648;-77
2023/03/03 09:31:38;;;;;;;;;55.00;40.00;;;;;6.60;100.00;102138.50;5029733;28;45446;-77
2023/03/03 09:34:15;;;;;;;;;53.00;40.50;;;;;6.62;100.00;102139.50;5021785;28;45394;-77
2023/03/03 09:36:41;;;;;;;;;56.00;41.25;;;;;6.63;100.00;102134.31;5021939;28;45418;-79
2023/03/03 09:39:15;;;;;;;;;57.25;42.50;;;;;6.67;100.00;102132.75;5038919;28;45732;-77
2023/03/03 09:42:05;;;;;;;;;58.25;43.00;;;;;6.71;100.00;102138.22;5039441;28;45434;-79
2023/03/03 09:44:33;;;;;;;;;57.00;39.75;;;;;6.73;100.00;102133.94;5034420;28;45390;-78
2023/03/03 09:47:13;;;;;;;;;51.25;40.25;;;;;6.77;100.00;102130.63;5030562;28;45478;-77
2023/03/03 09:50:12;;;;;;;;;43.50;35.50;;;;;6.81;100.00;102137.81;5036895;28;46561;-77
2023/03/03 09:52:46;;;;;;;;;56.75;39.75;;;;;6.88;100.00;102133.78;5030534;28;45538;-76
2023/03/03 09:55:16;;;;;;;;;52.00;41.75;;;;;6.91;100.00;102123.38;5029700;28;45401;-80
2023/03/03 09:58:05;;;;;;;;;58.25;41.00;;;;;6.95;100.00;102121.81;5021250;28;45408;-78
2023/03/03 10:00:37;;;;;;;;;53.75;39.75;;;;;7.00;100.00;102133.44;5033084;28;45497;-78
2023/03/03 10:03:24;;;;;;;;;57.25;40.50;;;;;7.06;100.00;102144.22;5021036;28;45274;-77
2023/03/03 10:06:28;;;;;;;;;55.50;40.75;;;;;7.11;100.00;102137.44;5039040;28;45612;-77
2023/03/03 10:08:56;;;;;;;;;51.25;38.00;;;;;7.16;100.00;102130.69;4998340;28;45589;-77
2023/03/03 10:11:53;;;;;;;;;51.25;38.00;;;;;7.23;100.00;102138.00;5020930;28;47352;-77
2023/03/03 10:14:27;;;;;;;;;38.00;35.25;;;;;7.30;100.00;102141.81;5036727;28;45608;-77
2023/03/03 10:17:23;;;;;;;;;50.00;37.25;;;;;7.37;100.00;102146.53;5046520;28;45492;-77
2023/03/03 10:20:02;;;;;;;;;46.25;35.00;;;;;7.43;100.00;102151.16;5020877;28;45542;-77
2023/03/03 10:22:37;;;;;;;;;50.75;35.00;;;;;7.48;100.00;102158.41;5029035;28;46669;-76
2023/03/03 10:25:12;;;;;;;;;42.75;34.75;;;;;7.59;100.00;102161.50;5020481;28;45386;-77
2023/03/03 10:27:40;;;;;;;;;41.75;36.50;;;;;7.66;100.00;102153.06;5020804;28;45323;-80
2023/03/03 10:30:32;;;;;;;;;52.50;38.00;;;;;7.74;100.00;102153.41;5048703;28;45516;-77
2023/03/03 10:33:04;;;;;;;;;47.00;31.25;;;;;7.79;100.00;102154.50;5010124;28;45907;-77
2023/03/03 10:35:43;;;;;;;;;49.75;39.00;;;;;7.85;100.00;102150.41;5016139;28;46752;-79
2023/03/03 10:38:26;;;;;;;;;48.50;39.50;;;;;7.93;100.00;102148.09;5020832;28;45368;-78
2023/03/03 10:41:03;;;;;;;;;43.50;36.25;;;;;7.99;100.00;102151.00;5038616;28;45232;-77
2023/03/03 10:43:40;;;;;;;;;41.25;33.75;;;;;8.07;100.00;102148.69;5020514;28;46674;-77
2023/03/03 10:46:18;;;;;;;;;40.75;32.50;;;;;8.12;100.00;102150.69;5037503;28;45490;-77
2023/03/03 10:48:50;;;;;;;;;45.25;36.25;;;;;8.22;100.00;102154.59;5038699;28;45354;-77
2023/03/03 10:51:36;;;;;;;;;49.50;34.75;;;;;8.27;100.00;102145.16;5020433;28;45519;-77
2023/03/03 10:54:29;;;;;;;;;36.25;30.25;;;;;8.34;100.00;102144.56;5020540;28;45367;-77
2023/03/03 10:57:03;;;;;;;;;39.25;28.50;;;;;8.42;100.00;102157.19;5017274;28;45509;-77
2023/03/03 10:59:44;;;;;;;;;51.75;37.75;;;;;8.45;100.00;102155.56;5035977;28;45398;-77
2023/03/03 11:02:16;;;;;;;;;43.25;36.75;;;;;8.54;100.00;102148.06;5000595;28;45288;-77
2023/03/03 11:04:47;;;;;;;;;37.50;31.75;;;;;8.61;100.00;102152.72;5037582;28;46624;-77
2023/03/03 11:07:48;;;;;;;;;43.75;33.50;;;;;8.66;99.58;102143.28;5037813;28;45587;-77
2023/03/03 11:10:27;;;;;;;;;46.75;30.00;;;;;8.77;100.00;102153.34;5025144;28;46363;-79
2023/03/03 11:13:02;;;;;;;;;42.75;33.50;;;;;8.86;99.20;102158.97;5012836;28;45419;-77
2023/03/03 11:15:46;;;;;;;;;49.25;32.50;;;;;8.93;98.93;102153.09;5037091;28;45834;-78
2023/03/03 11:18:24;;;;;;;;;40.50;31.50;;;;;9.01;98.13;102141.13;5023647;28;45339;-78
2023/03/03 11:21:01;;;;;;;;;39.00;30.00;;;;;9.08;98.21;102148.41;5025713;28;45438;-77
2023/03/03 11:23:45;;;;;;;;;37.25;32.25;;;;;9.15;98.35;102137.25;5038260;28;45438;-77
2023/03/03 11:26:13;;;;;;;;;43.25;30.25;;;;;9.23;98.17;102129.66;5037633;28;46718;-79